Data for 08/26/2017

Time Sea-Level Adjusted Pressure Absolute Pressure Temperature Relative Humidity Dew Point   
(mb) (inHg) (mb) (inHg) (C) (F) (%) (C) (F)
00:05 1021 30.15 850 25.1 18 64.3 46 6.4 43.5
00:10 1021 30.15 850 25.1 17.9 64.2 47 6.6 43.8
00:15 1021 30.15 850 25.1 17.8 64 47 6.3 43.3
00:20 1021 30.15 850 25.1 17.9 64.2 45 6 42.8
00:25 1021 30.15 850 25.1 18.1 64.5 45 6.1 42.9
00:30 1021 30.15 850 25.1 18.3 64.9 47 6.9 44.5
00:35 1021 30.15 850 25.1 17.9 64.2 50 7.4 45.4
00:40 1021 30.15 850 25.1 17.5 63.5 51 7.4 45.4
00:45 1021 30.15 850 25.1 17.4 63.2 52 7.6 45.7
00:50 1021 30.15 850 25.1 17.1 62.7 54 7.7 45.9
00:55 1021 30.15 850 25.1 16.9 62.4 54 7.6 45.7
01:00 1021 30.15 850 25.1 16.9 62.4 52 7.2 45
01:05 1021 30.15 850 25.1 17.1 62.8 54 7.7 45.9
01:10 1021 30.15 850 25.1 16.8 62.3 56 8.1 46.5
01:15 1021 30.15 851 25.13 16.5 61.6 57 8.1 46.5
01:20 1021 30.15 851 25.13 16.3 61.3 57 7.9 46.2
01:25 1021 30.15 851 25.13 16.5 61.6 53 7 44.7
01:30 1021 30.15 851 25.13 17 62.7 51 7.1 44.7
01:35 1021 30.15 851 25.13 17.2 62.9 52 7.3 45.2
01:40 1021 30.15 851 25.13 16.8 62.2 55 7.7 45.9
01:45 1021 30.15 851 25.13 16.2 61.2 55 7.1 44.9
01:50 1021 30.15 851 25.13 16.3 61.3 56 7.7 45.8
01:55 1021 30.15 851 25.13 16 60.8 57 7.6 45.7
02:00 1021 30.15 851 25.13 16 60.8 57 7.5 45.5
02:05 1022 30.18 851 25.13 15.9 60.6 58 7.7 45.9
02:10 1022 30.18 851 25.13 15.8 60.4 58 7.7 45.8
02:15 1022 30.18 851 25.13 15.6 60.1 60 7.9 46.2
02:20 1022 30.18 851 25.13 15.2 59.4 61 7.9 46.2
02:25 1022 30.18 851 25.13 15 59 62 7.8 46.1
02:30 1022 30.18 851 25.13 15 59 61 7.6 45.8
02:35 1022 30.18 851 25.13 15 59 61 7.5 45.5
02:40 1022 30.18 851 25.13 15.1 59.1 60 7.4 45.4
02:45 1022 30.18 851 25.13 15.1 59.1 59 7.3 45.1
02:50 1022 30.18 851 25.13 15.2 59.3 59 7.3 45.1
02:55 1022 30.18 851 25.13 15.2 59.3 58 7.1 44.8
03:00 1022 30.18 851 25.13 15.3 59.5 57 7 44.6
03:05 1022 30.18 851 25.13 15.4 59.6 57 6.9 44.3
03:10 1022 30.18 851 25.13 15.6 60 57 7.1 44.8
03:15 1022 30.18 851 25.13 15.2 59.4 59 7.3 45.2
03:20 1022 30.18 851 25.13 14.8 58.6 60 7.2 45
03:25 1022 30.18 852 25.16 14.7 58.5 59 6.9 44.5
03:30 1022 30.18 852 25.16 14.7 58.5 60 7.2 44.9
03:35 1022 30.18 852 25.16 14.3 57.7 61 6.9 44.5
03:40 1022 30.18 852 25.16 14.1 57.3 62 6.9 44.5
03:45 1022 30.18 852 25.16 13.9 57 61 6.5 43.8
03:50 1022 30.18 852 25.16 14 57.3 61 6.8 44.2
03:55 1022 30.18 852 25.16 14 57.2 61 6.7 44.1
04:00 1022 30.18 852 25.16 13.9 56.9 62 6.7 44
04:05 1022 30.18 852 25.16 13.8 56.9 61 6.5 43.8
04:10 1023 30.21 852 25.16 13.8 56.8 61 6.5 43.8
04:15 1023 30.21 852 25.16 13.8 56.8 60 6.3 43.4
04:20 1023 30.21 852 25.16 13.8 56.8 61 6.4 43.5
04:25 1023 30.21 852 25.16 13.6 56.5 61 6.3 43.3
04:30 1023 30.21 852 25.16 13.6 56.5 60 6 42.9
04:35 1023 30.21 852 25.16 13.9 57 59 6 42.8
04:40 1023 30.21 852 25.16 14 57.3 58 5.9 42.6
04:45 1023 30.21 852 25.16 14.1 57.4 58 5.9 42.7
04:50 1023 30.21 852 25.16 14.4 57.9 57 5.9 42.7
04:55 1023 30.21 852 25.16 14.5 58.1 56 6 42.8
05:00 1023 30.21 852 25.16 14.5 58 57 6.1 43
05:05 1023 30.21 852 25.16 14.2 57.5 56 5.7 42.2
05:10 1023 30.21 852 25.16 14.4 57.9 56 5.7 42.3
05:15 1023 30.21 852 25.16 14.3 57.8 56 5.7 42.3
05:20 1023 30.21 852 25.16 14.4 57.8 55 5.6 42.1
05:25 1023 30.21 852 25.16 14.3 57.7 56 5.8 42.4
05:30 1023 30.21 852 25.16 13.9 57 58 5.9 42.6
05:35 1023 30.21 852 25.16 13.5 56.2 59 5.7 42.3
05:40 1023 30.21 852 25.16 13.3 55.9 61 6 42.7
05:45 1023 30.21 852 25.16 13 55.4 61 5.8 42.5
05:50 1023 30.21 852 25.16 12.9 55.3 62 5.9 42.6
05:55 1023 30.21 852 25.16 12.8 55 61 5.6 42
06:00 1023 30.21 852 25.16 13 55.4 61 5.6 42.1
06:05 1023 30.21 852 25.16 13.3 55.9 59 5.6 42
06:10 1023 30.21 852 25.16 13.4 56.1 58 5.5 41.9
06:15 1023 30.21 853 25.19 13.4 56 59 5.6 42.1
06:20 1023 30.21 853 25.19 13.3 55.9 59 5.6 42
06:25 1023 30.21 853 25.19 13 55.4 60 5.5 41.8
06:30 1023 30.21 853 25.19 12.8 55 60 5.2 41.4
06:35 1024 30.24 853 25.19 12.8 55 58 4.9 40.8
06:40 1024 30.24 853 25.19 13.1 55.6 58 5.1 41.1
06:45 1024 30.24 853 25.19 13.1 55.5 58 5.1 41.1
06:50 1024 30.24 853 25.19 12.9 55.3 59 5.2 41.4
06:55 1024 30.24 853 25.19 12.6 54.7 61 5.3 41.6
07:00 1024 30.24 853 25.19 12.3 54.1 63 5.5 41.9
07:05 1024 30.24 853 25.19 11.8 53.3 62 4.8 40.6
07:10 1024 30.24 853 25.19 12.4 54.4 57 4.1 39.5
07:15 1024 30.24 853 25.19 12.9 55.2 55 4.3 39.7
07:20 1024 30.24 853 25.19 13.1 55.6 55 4.5 40
07:25 1024 30.24 853 25.19 13.1 55.5 57 4.8 40.7
07:30 1024 30.24 853 25.19 12.9 55.2 59 5.1 41.2
07:35 1024 30.24 853 25.19 12.7 54.9 60 5.1 41.2
07:40 1024 30.24 853 25.19 12.9 55.2 58 4.9 40.9
07:45 1024 30.24 853 25.19 13 55.4 59 5.2 41.3
07:50 1024 30.24 853 25.19 13 55.5 58 5.1 41.2
07:55 1024 30.24 853 25.19 13.3 56 57 5 41
08:00 1024 30.24 853 25.19 13.8 56.8 55 5.1 41.2
08:05 1024 30.24 854 25.22 14.2 57.6 53 4.9 40.8
08:10 1024 30.24 854 25.22 14.7 58.4 52 5 41
08:10 1024 30.24 854 25.22 14.7 58.4 52 5 41
08:15 1024 30.24 854 25.22 15.2 59.3 51 5.1 41.1
08:20 1024 30.24 854 25.22 15.2 59.4 51 5.2 41.4
08:25 1024 30.24 854 25.22 14.9 58.9 51 5.1 41.2
08:30 1025 30.27 854 25.22 14.8 58.6 53 5.3 41.5
08:35 1025 30.27 854 25.22 15.3 59.5 51 5.2 41.3
08:40 1025 30.27 854 25.22 15.9 60.5 49 5.1 41.2
08:45 1025 30.27 854 25.22 16.5 61.6 48 5.6 42.1
08:50 1025 30.27 854 25.22 16.8 62.2 48 5.7 42.3
08:55 1025 30.27 854 25.22 17 62.5 46 5.4 41.7
09:00 1025 30.27 854 25.22 17.5 63.4 44 5.3 41.6
09:05 1025 30.27 854 25.22 18 64.3 44 5.8 42.4
09:10 1025 30.27 854 25.22 18.6 65.5 43 6.1 42.9
09:15 1025 30.27 854 25.22 19 66.2 39 4.9 40.7
09:20 1025 30.27 854 25.22 18.9 66 42 5.7 42.3
09:25 1025 30.27 854 25.22 19.1 66.4 39 5 40.9
09:30 1025 30.27 854 25.22 19.6 67.3 38 5 40.9
09:35 1025 30.27 854 25.22 19.8 67.6 35 4.2 39.5
09:40 1025 30.27 854 25.22 19.7 67.5 36 4.4 39.8
09:45 1025 30.27 854 25.22 20 67.9 35 4.2 39.6
09:50 1025 30.27 854 25.22 19.7 67.5 36 4.5 40.1
09:55 1025 30.27 854 25.22 20 68 36 4.8 40.6
10:00 1025 30.27 854 25.22 20.3 68.6 37 5.5 41.9
10:05 1025 30.27 855 25.25 20.7 69.3 37 5.5 41.9
10:10 1025 30.27 855 25.25 21.4 70.5 35 5.5 41.9
10:15 1025 30.27 855 25.25 21.3 70.3 36 6 42.7
10:20 1025 30.27 855 25.25 21.6 70.8 34 5.3 41.6
10:25 1025 30.27 855 25.25 21.4 70.5 34 5.2 41.4
10:30 1025 30.27 855 25.25 21.5 70.8 33 4.9 40.8
10:35 1025 30.27 855 25.25 21.5 70.7 31 4 39.2
10:40 1025 30.27 855 25.25 21.8 71.2 31 4 39.3
10:45 1025 30.27 855 25.25 22.1 71.7 29 3.3 37.9
10:50 1025 30.27 855 25.25 21.9 71.4 28 2.6 36.7
10:55 1025 30.27 855 25.25 22 71.7 27 2.5 36.5
11:00 1025 30.27 855 25.25 22.4 72.4 29 3.9 39.1
11:05 1026 30.3 855 25.25 22.5 72.5 31 4.5 40.2
11:10 1026 30.3 855 25.25 22.4 72.3 30 4 39.2
11:15 1026 30.3 855 25.25 22.6 72.6 29 3.7 38.7
11:20 1026 30.3 855 25.25 21.7 71 29 2.8 37.1
11:25 1026 30.3 855 25.25 21.7 71.1 28 2.7 36.8
11:30 1026 30.3 855 25.25 23 73.4 26 2.9 37.2
11:35 1026 30.3 855 25.25 23.5 74.2 25 2.8 37
11:40 1026 30.3 855 25.25 23.6 74.5 24 1.9 35.4
11:45 1026 30.3 855 25.25 23.5 74.3 25 2.3 36.1
11:50 1025 30.27 855 25.25 23.3 74 25 2.3 36.2
11:55 1026 30.3 855 25.25 23.5 74.2 25 2.3 36.2
12:00 1026 30.3 855 25.25 23.4 74.1 24 2.1 35.7
12:05 1025 30.27 855 25.25 23.7 74.6 24 2.1 35.9
12:10 1025 30.27 855 25.25 24.4 75.9 23 2.2 35.9
12:15 1025 30.27 855 25.25 24.3 75.7 23 2 35.5
12:20 1025 30.27 855 25.25 24.2 75.5 23 1.9 35.4
12:25 1025 30.27 855 25.25 24.8 76.6 23 2.3 36.2
12:30 1025 30.27 855 25.25 24.3 75.8 24 2.5 36.4
12:35 1025 30.27 855 25.25 24.6 76.2 22 1.5 34.8
12:40 1025 30.27 855 25.25 24.9 76.9 22 2.2 35.9
12:45 1025 30.27 854 25.22 24.7 76.4 21 1.4 34.5
12:50 1025 30.27 854 25.22 23.9 75.1 24 2.2 36
12:55 1025 30.27 854 25.22 24.9 76.8 22 1.8 35.2
13:00 1025 30.27 854 25.22 25.3 77.5 21 1.8 35.2
13:05 1025 30.27 854 25.22 25.7 78.3 20 1.5 34.7
13:10 1025 30.27 854 25.22 24.8 76.6 23 2.8 37
13:15 1025 30.27 854 25.22 24.8 76.6 23 2.3 36.2
13:20 1025 30.27 854 25.22 24.5 76.1 22 1.7 35.1
13:25 1025 30.27 854 25.22 25.4 77.7 22 2.4 36.4
13:30 1025 30.27 854 25.22 25.7 78.2 22 2.7 36.8
13:35 1025 30.27 854 25.22 25 77 23 2.6 36.7
13:40 1025 30.27 854 25.22 24.9 76.8 23 2.6 36.6
13:45 1025 30.27 854 25.22 25.5 77.9 23 3.3 38
13:50 1025 30.27 854 25.22 25.6 78 22 2.3 36.1
13:55 1025 30.27 854 25.22 26.5 79.7 20 2 35.5
14:00 1025 30.27 854 25.22 25.5 77.9 21 1.7 35.1
14:05 1025 30.27 854 25.22 25.8 78.5 20 1.8 35.2
14:10 1025 30.27 854 25.22 26.1 79 19 1.2 34.2
14:15 1025 30.27 854 25.22 26.7 80 18 0.8 33.5
14:20 1025 30.27 854 25.22 27 80.7 20 2.4 36.2
14:25 1025 30.27 854 25.22 26.9 80.5 19 1.9 35.4
14:30 1025 30.27 854 25.22 27.2 81 19 2.1 35.8
14:35 1025 30.27 854 25.22 26.7 80 19 1.7 35.1
14:40 1025 30.27 854 25.22 26.9 80.5 19 1.9 35.4
14:45 1025 30.27 854 25.22 27.1 80.7 19 2 35.6
14:50 1025 30.27 854 25.22 27.6 81.6 17 0.9 33.5
14:55 1025 30.27 854 25.22 27.7 81.9 18 1.8 35.2
15:00 1025 30.27 854 25.22 27.1 80.9 18 0.9 33.7
15:05 1025 30.27 854 25.22 27.4 81.4 19 1.9 35.5
15:10 1025 30.27 854 25.22 27.4 81.4 18 1.1 34
15:15 1025 30.27 854 25.22 28 82.4 17 0.8 33.5
08:10 1024 30.24 854 25.22 14.7 58.4 52 5 41
08:15 1024 30.24 854 25.22 15.2 59.3 51 5.1 41.1
08:20 1024 30.24 854 25.22 15.2 59.4 51 5.2 41.4
08:25 1024 30.24 854 25.22 14.9 58.9 51 5.1 41.2
08:30 1025 30.27 854 25.22 14.8 58.6 53 5.3 41.5
08:35 1025 30.27 854 25.22 15.3 59.5 51 5.2 41.3
08:40 1025 30.27 854 25.22 15.9 60.5 49 5.1 41.2
08:45 1025 30.27 854 25.22 16.5 61.6 48 5.6 42.1
08:50 1025 30.27 854 25.22 16.8 62.2 48 5.7 42.3
08:55 1025 30.27 854 25.22 17 62.5 46 5.4 41.7
09:00 1025 30.27 854 25.22 17.5 63.4 44 5.3 41.6
09:05 1025 30.27 854 25.22 18 64.3 44 5.8 42.4
09:10 1025 30.27 854 25.22 18.6 65.5 43 6.1 42.9
09:15 1025 30.27 854 25.22 19 66.2 39 4.9 40.7
09:20 1025 30.27 854 25.22 18.9 66 42 5.7 42.3
09:25 1025 30.27 854 25.22 19.1 66.4 39 5 40.9
09:30 1025 30.27 854 25.22 19.6 67.3 38 5 40.9
09:35 1025 30.27 854 25.22 19.8 67.6 35 4.2 39.5
09:40 1025 30.27 854 25.22 19.7 67.5 36 4.4 39.8
09:45 1025 30.27 854 25.22 20 67.9 35 4.2 39.6
09:50 1025 30.27 854 25.22 19.7 67.5 36 4.5 40.1
09:55 1025 30.27 854 25.22 20 68 36 4.8 40.6
10:00 1025 30.27 854 25.22 20.3 68.6 37 5.5 41.9
10:05 1025 30.27 855 25.25 20.7 69.3 37 5.5 41.9
10:10 1025 30.27 855 25.25 21.4 70.5 35 5.5 41.9
10:15 1025 30.27 855 25.25 21.3 70.3 36 6 42.7
10:20 1025 30.27 855 25.25 21.6 70.8 34 5.3 41.6
10:25 1025 30.27 855 25.25 21.4 70.5 34 5.2 41.4
10:30 1025 30.27 855 25.25 21.5 70.8 33 4.9 40.8
10:35 1025 30.27 855 25.25 21.5 70.7 31 4 39.2
10:40 1025 30.27 855 25.25 21.8 71.2 31 4 39.3
10:45 1025 30.27 855 25.25 22.1 71.7 29 3.3 37.9
10:50 1025 30.27 855 25.25 21.9 71.4 28 2.6 36.7
10:55 1025 30.27 855 25.25 22 71.7 27 2.5 36.5
11:00 1025 30.27 855 25.25 22.4 72.4 29 3.9 39.1
11:05 1026 30.3 855 25.25 22.5 72.5 31 4.5 40.2
11:10 1026 30.3 855 25.25 22.4 72.3 30 4 39.2
11:15 1026 30.3 855 25.25 22.6 72.6 29 3.7 38.7
11:20 1026 30.3 855 25.25 21.7 71 29 2.8 37.1
11:25 1026 30.3 855 25.25 21.7 71.1 28 2.7 36.8
11:30 1026 30.3 855 25.25 23 73.4 26 2.9 37.2
11:35 1026 30.3 855 25.25 23.5 74.2 25 2.8 37
11:40 1026 30.3 855 25.25 23.6 74.5 24 1.9 35.4
11:45 1026 30.3 855 25.25 23.5 74.3 25 2.3 36.1
11:50 1025 30.27 855 25.25 23.3 74 25 2.3 36.2
11:55 1026 30.3 855 25.25 23.5 74.2 25 2.3 36.2
12:00 1026 30.3 855 25.25 23.4 74.1 24 2.1 35.7
12:05 1025 30.27 855 25.25 23.7 74.6 24 2.1 35.9
12:10 1025 30.27 855 25.25 24.4 75.9 23 2.2 35.9
12:15 1025 30.27 855 25.25 24.3 75.7 23 2 35.5
12:20 1025 30.27 855 25.25 24.2 75.5 23 1.9 35.4
12:25 1025 30.27 855 25.25 24.8 76.6 23 2.3 36.2
12:30 1025 30.27 855 25.25 24.3 75.8 24 2.5 36.4
12:35 1025 30.27 855 25.25 24.6 76.2 22 1.5 34.8
12:40 1025 30.27 855 25.25 24.9 76.9 22 2.2 35.9
12:45 1025 30.27 854 25.22 24.7 76.4 21 1.4 34.5
12:50 1025 30.27 854 25.22 23.9 75.1 24 2.2 36
12:55 1025 30.27 854 25.22 24.9 76.8 22 1.8 35.2
13:00 1025 30.27 854 25.22 25.3 77.5 21 1.8 35.2
13:05 1025 30.27 854 25.22 25.7 78.3 20 1.5 34.7
13:10 1025 30.27 854 25.22 24.8 76.6 23 2.8 37
13:15 1025 30.27 854 25.22 24.8 76.6 23 2.3 36.2
13:20 1025 30.27 854 25.22 24.5 76.1 22 1.7 35.1
13:25 1025 30.27 854 25.22 25.4 77.7 22 2.4 36.4
13:30 1025 30.27 854 25.22 25.7 78.2 22 2.7 36.8
13:35 1025 30.27 854 25.22 25 77 23 2.6 36.7
13:40 1025 30.27 854 25.22 24.9 76.8 23 2.6 36.6
13:45 1025 30.27 854 25.22 25.5 77.9 23 3.3 38
13:50 1025 30.27 854 25.22 25.6 78 22 2.3 36.1
13:55 1025 30.27 854 25.22 26.5 79.7 20 2 35.5
14:00 1025 30.27 854 25.22 25.5 77.9 21 1.7 35.1
14:05 1025 30.27 854 25.22 25.8 78.5 20 1.8 35.2
14:10 1025 30.27 854 25.22 26.1 79 19 1.2 34.2
14:15 1025 30.27 854 25.22 26.7 80 18 0.8 33.5
14:20 1025 30.27 854 25.22 27 80.7 20 2.4 36.2
14:25 1025 30.27 854 25.22 26.9 80.5 19 1.9 35.4
14:30 1025 30.27 854 25.22 27.2 81 19 2.1 35.8
14:35 1025 30.27 854 25.22 26.7 80 19 1.7 35.1
14:40 1025 30.27 854 25.22 26.9 80.5 19 1.9 35.4
14:45 1025 30.27 854 25.22 27.1 80.7 19 2 35.6
14:50 1025 30.27 854 25.22 27.6 81.6 17 0.9 33.5
14:55 1025 30.27 854 25.22 27.7 81.9 18 1.8 35.2
15:00 1025 30.27 854 25.22 27.1 80.9 18 0.9 33.7
15:05 1025 30.27 854 25.22 27.4 81.4 19 1.9 35.5
15:10 1025 30.27 854 25.22 27.4 81.4 18 1.1 34
15:15 1025 30.27 854 25.22 28 82.4 17 0.8 33.5
15:20 1025 30.27 854 25.22 27.5 81.5 19 2.3 36.2
15:25 1025 30.27 854 25.22 27.2 81 18 1.3 34.3
15:30 1024 30.24 854 25.22 27.2 80.9 18 1.1 33.9
15:35 1024 30.24 854 25.22 26.7 80 19 1.4 34.6
15:40 1024 30.24 854 25.22 26.5 79.7 19 1.3 34.3
15:45 1024 30.24 854 25.22 26.9 80.3 18 0.7 33.2
15:50 1024 30.24 854 25.22 27.4 81.4 18 1.7 35
15:55 1024 30.24 854 25.22 26.8 80.3 19 1.2 34.1
16:00 1024 30.24 854 25.22 27.5 81.5 18 1 33.8
16:05 1024 30.24 854 25.22 27.6 81.7 18 1.4 34.5
16:10 1024 30.24 854 25.22 28.3 82.9 15 -0.2 31.6
16:15 1024 30.24 854 25.22 27.9 82.3 16 0.4 32.7
16:20 1024 30.24 854 25.22 28.3 83 16 0.6 33.1
16:25 1024 30.24 853 25.19 28.2 82.7 17 0.7 33.3
16:30 1024 30.24 853 25.19 28.3 82.9 15 -0.3 31.4
16:35 1024 30.24 853 25.19 28.4 83.2 15 -0 32
16:40 1024 30.24 853 25.19 28.1 82.6 15 -0.8 30.6
16:45 1024 30.24 853 25.19 28.3 82.9 15 -0.5 31.1
16:50 1024 30.24 853 25.19 28.3 82.9 15 -0.8 30.5
16:55 1024 30.24 853 25.19 28.2 82.7 14 -1.1 30.1
17:00 1024 30.24 853 25.19 27.4 81.4 15 -0.9 30.5
17:05 1024 30.24 853 25.19 27.3 81.1 16 -0.7 30.7
17:10 1024 30.24 853 25.19 27.4 81.3 15 -1 30.2
17:15 1024 30.24 853 25.19 27.1 80.9 15 -1.3 29.6
17:20 1024 30.24 853 25.19 27.5 81.4 15 -0.8 30.5
17:25 1024 30.24 853 25.19 27.7 81.8 15 -1.1 30
17:30 1024 30.24 853 25.19 27.3 81.2 15 -1.7 29
17:35 1024 30.24 853 25.19 27 80.6 15 -1.3 29.6
17:40 1024 30.24 853 25.19 27 80.5 15 -1.6 29.1
17:45 1024 30.24 853 25.19 27.1 80.7 15 -1.1 30
17:50 1024 30.24 853 25.19 27 80.7 15 -1.7 29
17:55 1024 30.24 853 25.19 26.9 80.4 14 -2.1 28.2
18:00 1024 30.24 853 25.19 27.4 81.2 15 -1.5 29.3
18:05 1024 30.24 853 25.19 27.7 81.8 15 -1.3 29.7
18:10 1024 30.24 853 25.19 27.5 81.6 15 -0.7 30.8
18:15 1024 30.24 853 25.19 27.5 81.5 15 -1.4 29.6
18:20 1024 30.24 853 25.19 27.2 81 15 -1.6 29.1
18:25 1024 30.24 853 25.19 27.5 81.4 14 -1.9 28.5
18:30 1024 30.24 853 25.19 27.2 80.9 15 -1.4 29.5
18:35 1024 30.24 853 25.19 26.8 80.2 15 -1.9 28.6
18:40 1024 30.24 853 25.19 26.6 79.9 15 -1.6 29.2
18:45 1024 30.24 853 25.19 26.7 80 14 -2.3 27.8
18:50 1024 30.24 853 25.19 26.7 80.1 14 -2.3 27.8
18:55 1024 30.24 853 25.19 26.7 80 15 -2.1 28.1
19:00 1024 30.24 853 25.19 26.7 80 16 -1.4 29.6
19:05 1024 30.24 853 25.19 26.6 79.9 15 -1.7 28.9
19:10 1024 30.24 853 25.19 26.4 79.6 15 -1.6 29.1
19:15 1024 30.24 853 25.19 26.4 79.5 15 -1.9 28.5
19:20 1024 30.24 853 25.19 26.3 79.4 15 -2.3 27.9
19:25 1024 30.24 853 25.19 26.2 79.2 18 0.1 32.2
19:30 1024 30.24 853 25.19 26.1 78.9 20 1.9 35.4
19:35 1024 30.24 853 25.19 25.7 78.2 23 3.4 38.1
19:40 1024 30.24 853 25.19 25.2 77.4 23 2.9 37.2
19:45 1024 30.24 853 25.19 24.9 76.9 27 4.9 40.9
19:50 1024 30.24 853 25.19 24.9 76.8 24 3.2 37.7
19:55 1024 30.24 853 25.19 25 77 24 3.1 37.6
20:00 1024 30.24 853 25.19 24.7 76.5 28 5.2 41.4
20:05 1024 30.24 853 25.19 23.9 75.1 32 6.3 43.4
20:10 1024 30.24 853 25.19 23 73.3 29 4.4 39.9
20:15 1024 30.24 853 25.19 22.6 72.7 29 3.9 39
20:20 1024 30.24 853 25.19 22.3 72.1 32 4.9 40.9
20:25 1024 30.24 853 25.19 21.8 71.3 31 4.1 39.4
20:30 1024 30.24 853 25.19 21.4 70.6 32 4.1 39.3
20:35 1024 30.24 853 25.19 21.2 70.1 31 3.7 38.7
20:40 1024 30.24 853 25.19 20.9 69.6 32 3.7 38.7
20:45 1024 30.24 854 25.22 20.7 69.2 31 3.3 37.9
20:50 1024 30.24 854 25.22 20.5 68.9 34 4.1 39.4
20:55 1024 30.24 854 25.22 19.7 67.4 37 4.6 40.3
21:00 1025 30.27 854 25.22 19.4 66.9 32 2.2 36
21:05 1025 30.27 854 25.22 19.7 67.4 32 2.9 37.2
21:10 1025 30.27 854 25.22 19.5 67.1 32 2.7 36.9
21:15 1025 30.27 854 25.22 19.6 67.2 31 2 35.6
21:20 1025 30.27 854 25.22 20 67.9 29 1.7 35
21:25 1025 30.27 854 25.22 20 68 30 2.2 36
21:30 1025 30.27 854 25.22 19.6 67.3 30 1.9 35.4
21:35 1025 30.27 854 25.22 19.4 67 32 2.3 36.2
21:40 1025 30.27 854 25.22 19 66.2 33 2.4 36.4
21:45 1025 30.27 854 25.22 18.5 65.3 34 2.5 36.5
21:50 1025 30.27 854 25.22 18.3 64.9 34 2.1 35.8
21:55 1025 30.27 854 25.22 18.4 65 33 1.7 35.1
22:00 1025 30.27 854 25.22 18.6 65.4 32 1.9 35.3
22:05 1025 30.27 854 25.22 18.6 65.4 32 1.9 35.4
22:10 1025 30.27 854 25.22 18.4 65.1 33 2.1 35.8
22:15 1025 30.27 854 25.22 18.2 64.8 33 1.8 35.2
22:20 1025 30.27 855 25.25 18.5 65.3 32 1.6 34.9
22:25 1025 30.27 855 25.25 18.3 65 33 1.9 35.4
22:30 1025 30.27 855 25.25 18.1 64.6 32 1.4 34.6
22:35 1025 30.27 855 25.25 18.4 65.1 32 1.5 34.8
22:40 1025 30.27 855 25.25 18.4 65.2 32 1.7 35
22:45 1025 30.27 855 25.25 18.2 64.7 33 1.6 34.9
22:50 1025 30.27 855 25.25 18 64.4 33 1.7 35.1
22:55 1025 30.27 855 25.25 17.8 64.1 31 0.7 33.3
23:00 1026 30.3 855 25.25 18.7 65.6 27 -0.3 31.4
23:05 1026 30.3 855 25.25 19.8 67.7 24 -1.1 30
23:10 1026 30.3 855 25.25 20.3 68.6 24 -1 30.2
23:15 1026 30.3 855 25.25 20.3 68.5 23 -1.3 29.6
23:20 1026 30.3 855 25.25 20.3 68.5 23 -1.6 29.1
23:25 1026 30.3 855 25.25 20.3 68.6 22 -1.8 28.8
23:30 1026 30.3 855 25.25 20.4 68.7 22 -2.2 28
23:35 1026 30.3 855 25.25 20.4 68.8 21 -2.3 27.9
23:40 1025 30.27 855 25.25 20.4 68.7 21 -2.4 27.6
23:45 1025 30.27 855 25.25 20.3 68.6 21 -2.4 27.7
23:50 1025 30.27 855 25.25 20.2 68.3 21 -2.5 27.6
23:55 1025 30.27 855 25.25 20.1 68.2 21 -2.6 27.3
24:00 1026 30.3 855 25.25 20 68.1 21 -2.6 27.3